Weather at Eliossola Heliport

Public forecast

Using degrees Celsius for public forecast. Weather courtesy of forecast.io.

Closest aviation weather report (METAR) to Eliossola Heliport

Report is more than 2 hours old.

Closest report is Frosinone Air Base, 18.8 nm (34.8 km) NNW.

2024/07/16 17:55 (retrieved 2 hours ago)

LIRH 161755Z 30005KT CAVOK 33/20 Q1012 RMK SKC MON LIB NC VIS MIN 9999 WIND THR16 31010KT BLU

Closest aviation forecast (TAF) to Eliossola Heliport

Closest forecast is Ciampino–G. B. Pastine International Airport, 46.6 nm (86.4 km) NW.

2024/07/16 18:00 (retrieved 2 hours ago)

TAF LIRA 161700Z 1618/1718 26010KT CAVOK BECMG 1618/1620 VRB05KT